Time;durP1;ratioP1;P1;durP2;ratioP2;P2;SDS_P1;SDS_P2;PMS_P1;PMS_P2;Temp;Humidity;BMP_temperature;BMP_pressure;BME280_temperature;BME280_humidity;BME280_pressure;Samples;Min_cycle;Max_cycle;Signal;HPM_P1;HPM_P2
2021/03/10 00:01:36;;;;;;;103.88;36.97;;;;;;;2.44;100.00;101627.94;6249738;28;20045;-72
2021/03/10 00:04:37;;;;;;;102.68;37.75;;;;;;;2.39;100.00;101627.94;6250355;28;20050;-73
2021/03/10 00:07:40;;;;;;;105.78;36.60;;;;;;;2.40;100.00;101624.47;6249897;28;20054;-73
2021/03/10 00:10:41;;;;;;;107.40;36.05;;;;;;;2.39;100.00;101625.34;6250003;28;20087;-73
2021/03/10 00:13:41;;;;;;;119.22;39.03;;;;;;;2.39;100.00;101632.28;6249239;28;20049;-73
2021/03/10 00:16:42;;;;;;;118.85;38.17;;;;;;;2.40;100.00;101642.63;6249924;28;20136;-74
2021/03/10 00:19:43;;;;;;;111.57;39.00;;;;;;;2.41;100.00;101640.94;6249588;28;20045;-73
2021/03/10 00:22:45;;;;;;;109.43;38.53;;;;;;;2.42;100.00;101645.25;6249293;28;20054;-72
2021/03/10 00:25:46;;;;;;;108.90;38.85;;;;;;;2.38;100.00;101651.31;6249635;28;20045;-72
2021/03/10 00:28:47;;;;;;;104.95;38.40;;;;;;;2.44;100.00;101649.53;6249482;28;20104;-73
2021/03/10 00:31:48;;;;;;;114.10;36.33;;;;;;;2.45;100.00;101648.69;6247832;28;20529;-73
2021/03/10 00:34:49;;;;;;;115.53;38.22;;;;;;;2.46;100.00;101658.19;6249280;28;20061;-73
2021/03/10 00:37:51;;;;;;;133.05;40.47;;;;;;;2.40;100.00;101649.56;6249402;28;20042;-72
2021/03/10 00:40:52;;;;;;;115.78;40.20;;;;;;;2.42;100.00;101660.81;6248685;28;20046;-73
2021/03/10 00:43:52;;;;;;;125.78;39.25;;;;;;;2.46;100.00;101658.19;6249357;28;20096;-72
2021/03/10 00:46:53;;;;;;;116.05;38.10;;;;;;;2.47;100.00;101656.44;6249088;28;20057;-73
2021/03/10 00:49:55;;;;;;;124.78;40.30;;;;;;;2.43;100.00;101655.59;6249063;28;20049;-73
2021/03/10 00:52:57;;;;;;;117.75;38.35;;;;;;;2.45;100.00;101646.09;6248469;28;20426;-72
2021/03/10 00:55:58;;;;;;;140.63;42.03;;;;;;;2.47;100.00;101653.84;6249114;28;20049;-72
2021/03/10 00:58:59;;;;;;;128.13;42.05;;;;;;;2.47;100.00;101651.25;6248871;28;20695;-72
2021/03/10 01:02:00;;;;;;;126.13;38.97;;;;;;;2.45;100.00;101643.50;6248655;28;20119;-72
2021/03/10 01:05:01;;;;;;;120.55;40.85;;;;;;;2.41;100.00;101639.19;6248797;28;20049;-72
2021/03/10 01:08:03;;;;;;;135.68;40.35;;;;;;;2.43;100.00;101645.22;6248431;28;20478;-72
2021/03/10 01:11:04;;;;;;;121.05;41.03;;;;;;;2.45;100.00;101646.09;6248365;28;20041;-73
2021/03/10 01:14:05;;;;;;;130.90;42.47;;;;;;;2.47;100.00;101640.88;6248244;28;20056;-73
2021/03/10 01:17:06;;;;;;;110.10;39.13;;;;;;;2.40;100.00;101642.63;6248457;28;20502;-73
2021/03/10 01:20:09;;;;;;;111.35;40.15;;;;;;;2.39;100.00;101635.72;6248172;28;20052;-73
2021/03/10 01:23:10;;;;;;;116.50;38.05;;;;;;;2.35;100.00;101641.81;6248229;28;20052;-72
2021/03/10 01:26:11;;;;;;;116.63;39.65;;;;;;;2.37;100.00;101639.22;6247658;28;20501;-73
2021/03/10 01:29:12;;;;;;;113.65;39.42;;;;;;;2.51;100.00;101640.88;6248179;28;20064;-72
2021/03/10 01:32:13;;;;;;;102.55;37.88;;;;;;;2.46;100.00;101642.63;6247918;28;20045;-72
2021/03/10 01:35:15;;;;;;;112.43;38.65;;;;;;;2.41;100.00;101631.41;6247823;28;20075;-73
2021/03/10 01:38:17;;;;;;;117.57;39.45;;;;;;;2.43;100.00;101629.66;6248007;28;20057;-72
2021/03/10 01:41:18;;;;;;;116.78;41.00;;;;;;;2.45;100.00;101632.22;6247197;28;20049;-73
2021/03/10 01:44:19;;;;;;;120.97;40.28;;;;;;;2.46;100.00;101640.03;6247879;28;20080;-73
2021/03/10 01:47:20;;;;;;;125.88;41.88;;;;;;;2.44;100.00;101651.28;6247704;28;20126;-73
2021/03/10 01:50:22;;;;;;;114.93;38.75;;;;;;;2.44;100.00;101659.91;6247659;28;20124;-72
2021/03/10 01:53:24;;;;;;;123.60;41.40;;;;;;;2.45;100.00;101655.59;6247422;28;20049;-73
2021/03/10 01:56:26;;;;;;;111.82;40.95;;;;;;;2.47;100.00;101646.94;6247417;28;20103;-73
2021/03/10 01:59:27;;;;;;;116.05;42.30;;;;;;;2.46;100.00;101632.25;6247375;28;20100;-73
2021/03/10 02:02:28;;;;;;;130.20;41.97;;;;;;;2.48;100.00;101640.00;6247119;28;20049;-73
2021/03/10 02:05:29;;;;;;;113.68;42.53;;;;;;;2.49;100.00;101650.38;6247449;28;20056;-73
2021/03/10 02:08:40;;;;;;;124.05;41.03;;;;;;;2.46;100.00;101646.94;6247228;28;20136;-73
2021/03/10 02:11:46;;;;;;;133.77;42.17;;;;;;;2.41;100.00;101651.31;6246935;28;20060;-73
2021/03/10 02:14:53;;;;;;;135.05;42.70;;;;;;;2.41;100.00;101664.28;6247060;28;20060;-73
2021/03/10 02:18:01;;;;;;;127.43;42.55;;;;;;;2.44;100.00;101657.31;6247213;28;20540;-73
2021/03/10 02:21:05;;;;;;;127.57;42.15;;;;;;;2.44;100.00;101646.09;6246844;28;20049;-73
2021/03/10 02:24:24;;;;;;;130.45;41.03;;;;;;;2.37;100.00;101634.88;6247130;28;20053;-73
2021/03/10 02:27:41;;;;;;;119.88;41.45;;;;;;;2.44;100.00;101648.69;6246817;28;20049;-73
2021/03/10 02:30:45;;;;;;;128.57;41.42;;;;;;;2.44;100.00;101649.53;6246757;28;20060;-73
2021/03/10 02:33:47;;;;;;;126.03;41.83;;;;;;;2.53;100.00;101643.44;6246731;28;20419;-72
2021/03/10 02:36:49;;;;;;;107.65;39.08;;;;;;;2.57;100.00;101639.97;6246761;28;20049;-72
2021/03/10 02:39:50;;;;;;;116.00;38.88;;;;;;;2.40;100.00;101634.00;6246430;28;20490;-72
2021/03/10 02:42:54;;;;;;;107.57;37.30;;;;;;;2.39;100.00;101633.13;6246448;28;20076;-72
2021/03/10 02:45:55;;;;;;;107.72;35.63;;;;;;;2.58;100.00;101638.22;6246673;28;20053;-72
2021/03/10 02:48:57;;;;;;;107.57;36.97;;;;;;;2.40;100.00;101631.41;6246635;28;20041;-74
2021/03/10 02:52:01;;;;;;;98.20;36.47;;;;;;;2.32;100.00;101618.50;6246267;28;20050;-73
2021/03/10 02:55:03;;;;;;;118.55;40.00;;;;;;;2.35;100.00;101627.97;6246815;28;20064;-73
2021/03/10 02:58:07;;;;;;;110.32;38.17;;;;;;;2.39;100.00;101627.09;6246244;28;20665;-73
2021/03/10 03:01:09;;;;;;;113.13;39.05;;;;;;;2.43;100.00;101640.03;6246307;28;20041;-73
2021/03/10 03:04:10;;;;;;;119.32;40.13;;;;;;;2.44;100.00;101633.13;6246453;28;20050;-73
2021/03/10 03:07:11;;;;;;;123.38;41.25;;;;;;;2.46;100.00;101633.97;6246301;28;20053;-73
2021/03/10 03:10:15;;;;;;;133.00;40.83;;;;;;;2.41;100.00;101628.81;6246313;28;20129;-73
2021/03/10 03:13:18;;;;;;;148.45;44.65;;;;;;;2.41;100.00;101628.81;6245869;28;20072;-73
2021/03/10 03:16:19;;;;;;;137.90;42.10;;;;;;;2.41;100.00;101621.03;6246196;28;20095;-73
2021/03/10 03:19:20;;;;;;;145.68;43.78;;;;;;;2.43;100.00;101608.91;6246003;28;20060;-73
2021/03/10 03:22:23;;;;;;;137.88;41.97;;;;;;;2.42;100.00;101602.00;6246119;28;20042;-73
2021/03/10 03:25:27;;;;;;;142.13;44.25;;;;;;;2.40;100.00;101602.88;6246091;28;20061;-73
2021/03/10 03:28:30;;;;;;;132.68;42.92;;;;;;;2.41;100.00;101605.47;6246310;28;20049;-73
2021/03/10 03:31:33;;;;;;;141.32;42.90;;;;;;;2.47;100.00;101622.72;6245366;28;20095;-73
2021/03/10 03:34:34;;;;;;;154.43;44.92;;;;;;;2.41;100.00;101613.25;6246118;28;20045;-72
2021/03/10 03:37:37;;;;;;;142.15;41.72;;;;;;;2.47;100.00;101608.03;6246070;28;20057;-73
2021/03/10 03:40:39;;;;;;;148.52;42.40;;;;;;;2.41;100.00;101608.06;6245800;28;20060;-72
2021/03/10 03:43:40;;;;;;;135.90;43.83;;;;;;;2.42;100.00;101614.97;6246082;28;20049;-73
2021/03/10 03:46:42;;;;;;;141.43;42.28;;;;;;;2.35;100.00;101620.19;6245838;28;20080;-73
2021/03/10 03:49:43;;;;;;;132.10;43.13;;;;;;;2.37;100.00;101627.13;6249112;28;20433;-73
2021/03/10 03:52:44;;;;;;;129.18;39.95;;;;;;;2.37;100.00;101626.25;6250087;28;20045;-73
2021/03/10 03:55:45;;;;;;;135.32;43.85;;;;;;;2.32;100.00;101628.88;6250397;28;20057;-73
2021/03/10 03:58:47;;;;;;;143.63;41.60;;;;;;;2.35;100.00;101639.22;6250281;28;20045;-73
2021/03/10 04:01:48;;;;;;;156.75;44.17;;;;;;;2.33;100.00;101635.78;6249998;28;20096;-73
2021/03/10 04:04:49;;;;;;;124.78;40.75;;;;;;;2.33;100.00;101640.97;6250156;28;20049;-73
2021/03/10 04:07:51;;;;;;;152.00;43.13;;;;;;;2.35;100.00;101640.94;6250236;28;20103;-73
2021/03/10 04:10:52;;;;;;;144.93;44.42;;;;;;;2.37;100.00;101641.81;6249989;28;20060;-73
2021/03/10 04:13:54;;;;;;;128.93;42.85;;;;;;;2.52;100.00;101639.13;6249675;28;20045;-73
2021/03/10 04:16:55;;;;;;;132.68;44.83;;;;;;;2.36;100.00;101642.66;6249814;28;20414;-73
2021/03/10 04:19:56;;;;;;;129.77;42.67;;;;;;;2.32;100.00;101633.16;6249557;28;20111;-73
2021/03/10 04:22:57;;;;;;;142.88;43.58;;;;;;;2.34;100.00;101629.72;6249601;28;20053;-73
2021/03/10 04:25:58;;;;;;;136.35;44.38;;;;;;;2.35;100.00;101621.06;6249684;28;20569;-73
2021/03/10 04:29:00;;;;;;;125.35;41.30;;;;;;;2.36;100.00;101617.59;6249654;28;20072;-73
2021/03/10 04:32:01;;;;;;;125.97;42.70;;;;;;;2.42;100.00;101624.50;6249264;28;20045;-73
2021/03/10 04:35:03;;;;;;;131.88;41.42;;;;;;;2.39;100.00;101627.09;6249455;28;20061;-73
2021/03/10 04:38:04;;;;;;;122.40;42.13;;;;;;;2.36;100.00;101625.38;6249335;28;20049;-73
2021/03/10 04:41:05;;;;;;;113.55;39.05;;;;;;;2.51;100.00;101640.88;6248860;28;20057;-73
2021/03/10 04:44:07;;;;;;;107.00;37.45;;;;;;;2.46;100.00;101649.56;6249366;28;20057;-73
2021/03/10 04:47:09;;;;;;;108.57;38.88;;;;;;;2.33;100.00;101660.84;6249132;28;20045;-73
2021/03/10 04:50:11;;;;;;;109.90;39.17;;;;;;;2.33;100.00;101659.13;6249118;28;20061;-73
2021/03/10 04:53:12;;;;;;;108.70;37.75;;;;;;;2.46;100.00;101665.97;6248704;28;20045;-73
2021/03/10 04:56:13;;;;;;;101.95;37.60;;;;;;;2.47;100.00;101651.25;6249137;28;20053;-73
2021/03/10 04:59:15;;;;;;;104.35;37.15;;;;;;;2.34;100.00;101645.28;6247942;28;20115;-72
2021/03/10 05:02:16;;;;;;;100.63;37.65;;;;;;;2.33;100.00;101648.75;6248310;28;20486;-73
2021/03/10 05:05:17;;;;;;;95.65;37.20;;;;;;;2.35;100.00;101648.72;6248678;28;20052;-73
2021/03/10 05:08:17;;;;;;;106.28;38.45;;;;;;;2.36;100.00;101640.91;6248926;28;20513;-73
2021/03/10 05:11:18;;;;;;;98.40;36.40;;;;;;;2.36;100.00;101647.84;6248331;28;20053;-73
2021/03/10 05:14:20;;;;;;;104.68;38.15;;;;;;;2.37;100.00;101640.09;6248319;28;20084;-73
2021/03/10 05:17:21;;;;;;;110.18;39.45;;;;;;;2.37;100.00;101650.47;6248442;28;20053;-73
2021/03/10 05:20:22;;;;;;;105.28;37.70;;;;;;;2.42;100.00;101650.44;6247901;28;20052;-73
2021/03/10 05:23:23;;;;;;;96.88;36.72;;;;;;;2.35;100.00;101647.00;6247808;28;20049;-73
2021/03/10 05:26:24;;;;;;;106.50;39.53;;;;;;;2.54;100.00;101656.41;6248020;28;20136;-73
2021/03/10 05:29:25;;;;;;;96.72;37.10;;;;;;;2.46;100.00;101653.00;6248069;28;20137;-73
2021/03/10 05:32:26;;;;;;;93.95;38.22;;;;;;;2.35;100.00;101657.38;6247548;28;20410;-74
2021/03/10 05:35:27;;;;;;;93.00;36.75;;;;;;;2.37;100.00;101659.97;6248136;28;20050;-73
2021/03/10 05:38:28;;;;;;;108.82;38.05;;;;;;;2.33;100.00;101664.31;6248148;28;20049;-73
2021/03/10 05:41:30;;;;;;;106.90;37.92;;;;;;;2.33;100.00;101653.94;6247310;28;20049;-73
2021/03/10 05:44:32;;;;;;;112.10;39.25;;;;;;;2.37;100.00;101645.28;6247694;28;20502;-73
2021/03/10 05:47:33;;;;;;;104.47;39.47;;;;;;;2.39;100.00;101638.31;6247323;28;20056;-72
2021/03/10 05:50:34;;;;;;;108.40;39.85;;;;;;;2.41;100.00;101643.53;6271134;28;20084;-76
2021/03/10 05:53:41;;;;;;;104.53;37.05;;;;;;;2.41;100.00;101644.38;6272001;28;20041;-73
2021/03/10 05:56:43;;;;;;;109.00;39.97;;;;;;;2.40;100.00;101645.22;6272358;28;20053;-73
2021/03/10 05:59:45;;;;;;;110.38;40.55;;;;;;;2.44;100.00;101646.09;6272020;28;20417;-72
2021/03/10 06:02:46;;;;;;;113.57;39.08;;;;;;;2.49;100.00;101641.72;6264279;28;20092;-73
2021/03/10 06:05:58;;;;;;;121.32;41.65;;;;;;;2.42;100.00;101637.47;6244181;28;20056;-73
2021/03/10 06:09:09;;;;;;;115.95;41.25;;;;;;;2.43;100.00;101645.22;6254187;28;20395;-73
2021/03/10 06:12:11;;;;;;;111.32;39.83;;;;;;;2.45;100.00;101653.88;6255372;28;20091;-73
2021/03/10 06:15:14;;;;;;;118.40;40.50;;;;;;;2.54;100.00;101651.22;6257318;28;20144;-73
2021/03/10 06:18:23;;;;;;;116.57;41.53;;;;;;;2.49;100.00;101655.56;6244976;28;20049;-73
2021/03/10 06:21:24;;;;;;;119.15;39.88;;;;;;;2.59;100.00;101651.22;6222442;28;20049;-73
2021/03/10 06:24:32;;;;;;;113.07;41.92;;;;;;;2.46;100.00;101650.41;6222699;28;20050;-72
2021/03/10 06:27:33;;;;;;;120.85;40.97;;;;;;;2.45;100.00;101651.28;6222358;28;20483;-73
2021/03/10 06:30:37;;;;;;;114.30;39.47;;;;;;;2.50;100.00;101643.47;6236922;28;20048;-73
2021/03/10 06:33:38;;;;;;;107.25;39.55;;;;;;;2.53;100.00;101656.41;6246227;28;20482;-73
2021/03/10 06:36:41;;;;;;;116.05;41.70;;;;;;;2.51;100.00;101656.44;6246665;28;20045;-73
2021/03/10 06:39:41;;;;;;;116.30;39.90;;;;;;;2.53;100.00;101653.81;6248783;28;20060;-74
2021/03/10 06:42:52;;;;;;;125.38;42.45;;;;;;;2.57;100.00;101663.31;6254229;28;20061;-73
2021/03/10 06:45:54;;;;;;;116.03;40.67;;;;;;;2.59;100.00;101666.78;6257717;28;20053;-73
2021/03/10 06:48:57;;;;;;;114.03;41.40;;;;;;;2.59;100.00;101658.09;6256989;28;20045;-73
2021/03/10 06:51:59;;;;;;;118.55;40.45;;;;;;;2.63;100.00;101672.78;6248819;28;20045;-72
2021/03/10 06:55:03;;;;;;;122.00;42.38;;;;;;;2.62;100.00;101664.13;6246578;28;20049;-73
2021/03/10 06:58:05;;;;;;;116.82;41.58;;;;;;;2.60;100.00;101655.53;6245815;28;20564;-73
2021/03/10 07:01:07;;;;;;;99.45;37.55;;;;;;;2.66;100.00;101654.59;6238090;28;20104;-73
2021/03/10 07:04:09;;;;;;;109.28;40.10;;;;;;;2.67;100.00;101654.59;6244142;28;20056;-73
2021/03/10 07:07:10;;;;;;;105.35;39.72;;;;;;;2.72;100.00;101657.16;6246047;28;20058;-72
2021/03/10 07:10:11;;;;;;;102.40;39.33;;;;;;;2.75;100.00;101662.34;6246132;28;20049;-73
2021/03/10 07:13:13;;;;;;;110.82;39.22;;;;;;;2.76;100.00;101666.66;6246355;28;20060;-73
2021/03/10 07:16:16;;;;;;;102.70;38.60;;;;;;;2.72;100.00;101664.94;6246137;28;20054;-73
2021/03/10 07:19:18;;;;;;;106.20;40.13;;;;;;;2.69;100.00;101665.84;6249693;28;20049;-73
2021/03/10 07:22:25;;;;;;;104.22;41.00;;;;;;;2.86;100.00;101672.63;6240261;28;20046;-72
2021/03/10 07:25:30;;;;;;;98.95;38.65;;;;;;;2.76;100.00;101672.69;6243084;28;20053;-73
2021/03/10 07:28:32;;;;;;;98.05;37.47;;;;;;;2.76;100.00;101671.84;6251215;28;20053;-73
2021/03/10 07:31:34;;;;;;;89.88;37.13;;;;;;;2.79;100.00;101677.88;6250477;28;20053;-73
2021/03/10 07:34:36;;;;;;;96.10;39.40;;;;;;;2.83;100.00;101670.09;6250980;28;20057;-73
2021/03/10 07:37:39;;;;;;;93.40;36.95;;;;;;;2.84;100.00;101677.00;6250684;28;20046;-72
2021/03/10 07:40:51;;;;;;;88.82;36.22;;;;;;;2.81;100.00;101670.06;6250357;28;20054;-73
2021/03/10 07:43:54;;;;;;;94.75;37.78;;;;;;;2.85;100.00;101671.78;6246688;28;20103;-71
2021/03/10 07:47:05;;;;;;;88.63;37.25;;;;;;;2.92;100.00;101670.88;6234595;28;20049;-69
2021/03/10 07:50:07;;;;;;;86.05;35.92;;;;;;;3.01;100.00;101673.41;6247364;28;20095;-69
2021/03/10 07:53:08;;;;;;;87.80;35.90;;;;;;;3.15;100.00;101675.03;6249796;28;20441;-70
2021/03/10 07:56:09;;;;;;;82.72;35.85;;;;;;;3.04;100.00;101662.13;6250238;28;20065;-70
2021/03/10 07:59:12;;;;;;;91.95;37.33;;;;;;;3.15;100.00;101675.03;6250326;28;20049;-69
2021/03/10 08:02:13;;;;;;;88.00;35.90;;;;;;;3.10;100.00;101677.69;6248246;28;20057;-71
2021/03/10 08:05:22;;;;;;;87.18;36.38;;;;;;;3.16;100.00;101668.97;6250272;28;20052;-72
2021/03/10 08:08:33;;;;;;;91.07;39.42;;;;;;;3.26;100.00;101681.84;6249882;28;20096;-70
2021/03/10 08:11:37;;;;;;;85.47;36.20;;;;;;;3.40;100.00;101681.75;6249789;28;20107;-71
2021/03/10 08:14:39;;;;;;;75.47;33.92;;;;;;;3.41;100.00;101678.28;6249731;28;20417;-71
2021/03/10 08:17:41;;;;;;;87.20;36.75;;;;;;;3.33;100.00;101677.50;6247192;28;20057;-72
2021/03/10 08:20:42;;;;;;;76.07;34.80;;;;;;;3.31;100.00;101672.28;6224985;28;20050;-67
2021/03/10 08:23:43;;;;;;;78.80;34.80;;;;;;;3.36;100.00;101676.59;6225089;28;20049;-68
2021/03/10 08:26:48;;;;;;;79.72;35.67;;;;;;;3.41;100.00;101680.91;6225089;28;20045;-68
2021/03/10 08:29:50;;;;;;;79.10;35.53;;;;;;;3.50;100.00;101682.56;6228762;28;20466;-67
2021/03/10 08:32:51;;;;;;;80.38;34.70;;;;;;;3.51;100.00;101685.13;6239827;28;20092;-67
2021/03/10 08:35:52;;;;;;;76.40;33.63;;;;;;;3.46;100.00;101683.44;6224374;28;20087;-67
2021/03/10 08:38:53;;;;;;;77.60;34.47;;;;;;;3.44;100.00;101685.19;6244494;28;20053;-67
2021/03/10 08:41:56;;;;;;;78.53;34.08;;;;;;;3.40;100.00;101671.34;6247898;28;20095;-68
2021/03/10 08:44:57;;;;;;;75.60;33.30;;;;;;;3.45;100.00;101677.41;6247194;28;20057;-68
2021/03/10 08:48:01;;;;;;;79.18;35.13;;;;;;;3.54;100.00;101681.63;6242659;28;20064;-68
2021/03/10 08:51:04;;;;;;;77.93;34.10;;;;;;;3.61;100.00;101680.69;6248703;28;20119;-67
2021/03/10 08:54:06;;;;;;;72.10;34.10;;;;;;;3.80;100.00;101683.97;6248606;28;20045;-67
2021/03/10 08:57:09;;;;;;;77.55;34.63;;;;;;;3.84;100.00;101682.22;6248877;28;20049;-68
2021/03/10 09:00:20;;;;;;;68.90;33.13;;;;;;;3.89;100.00;101673.47;6248397;28;20494;-68
2021/03/10 09:03:22;;;;;;;77.00;34.30;;;;;;;3.99;100.00;101676.84;6236234;28;20053;-67
2021/03/10 09:06:23;;;;;;;72.38;33.90;;;;;;;4.03;100.00;101673.31;6223591;28;20053;-67
2021/03/10 09:09:25;;;;;;;71.25;31.80;;;;;;;4.12;100.00;101667.16;6223495;28;20152;-68
2021/03/10 09:12:27;;;;;;;69.60;31.95;;;;;;;4.17;100.00;101667.94;6222816;28;20426;-67
2021/03/10 09:15:29;;;;;;;70.00;32.22;;;;;;;4.21;100.00;101667.91;6223038;28;20050;-67
2021/03/10 09:18:35;;;;;;;68.90;32.67;;;;;;;4.28;100.00;101660.91;6223653;28;20050;-67
2021/03/10 09:21:39;;;;;;;69.63;33.40;;;;;;;4.27;100.00;101664.34;6222470;28;20410;-67
2021/03/10 09:24:49;;;;;;;69.43;31.95;;;;;;;4.30;100.00;101664.31;6223150;28;20140;-67
2021/03/10 09:28:01;;;;;;;72.28;33.05;;;;;;;4.46;100.00;101665.00;6223019;28;20054;-68
2021/03/10 09:31:12;;;;;;;72.20;33.30;;;;;;;4.48;100.00;101664.09;6222526;28;20050;-68
2021/03/10 09:34:14;;;;;;;64.80;31.80;;;;;;;4.67;100.00;101646.47;6222914;28;20064;-71
2021/03/10 09:37:16;;;;;;;66.15;29.40;;;;;;;4.69;100.00;101641.25;6231190;28;20056;-67
2021/03/10 09:40:19;;;;;;;60.42;29.63;;;;;;;4.64;99.88;101638.72;6248679;28;20061;-67
2021/03/10 09:43:22;;;;;;;68.88;31.27;;;;;;;4.66;98.96;101643.91;6248698;28;20057;-67
2021/03/10 09:46:23;;;;;;;63.90;30.48;;;;;;;4.81;99.53;101644.53;6246291;28;20403;-67
2021/03/10 09:49:24;;;;;;;65.10;32.08;;;;;;;4.83;99.87;101624.53;6267653;28;20045;-67
2021/03/10 09:52:33;;;;;;;63.03;30.33;;;;;;;4.92;100.00;101623.53;6263865;28;20049;-66
2021/03/10 09:55:34;;;;;;;58.97;28.65;;;;;;;5.04;98.28;101618.13;6247668;28;20050;-66
2021/03/10 09:58:45;;;;;;;63.70;29.30;;;;;;;5.12;98.50;101612.78;6256718;28;20158;-66
2021/03/10 10:01:48;;;;;;;62.63;30.02;;;;;;;5.06;97.77;101611.13;6271565;28;20448;-66
2021/03/10 10:05:01;;;;;;;63.03;29.33;;;;;;;5.12;96.19;101604.09;6268329;28;20056;-68
2021/03/10 10:08:04;;;;;;;55.05;27.83;;;;;;;5.19;97.51;101606.59;6271439;28;20056;-67
2021/03/10 10:11:06;;;;;;;65.13;29.63;;;;;;;5.16;96.83;101608.38;6271201;28;20102;-68
2021/03/10 10:14:07;;;;;;;58.65;28.88;;;;;;;5.13;97.40;101605.81;6260565;28;20064;-67
2021/03/10 10:17:08;;;;;;;56.35;28.85;;;;;;;5.13;95.16;101598.84;6244526;28;20501;-67
2021/03/10 10:20:12;;;;;;;56.10;28.05;;;;;;;5.26;97.03;101599.50;6247181;28;20051;-67
2021/03/10 10:23:13;;;;;;;57.60;27.40;;;;;;;5.41;96.97;101599.25;6246882;28;20053;-68
2021/03/10 10:26:14;;;;;;;57.60;27.98;;;;;;;5.62;95.46;101592.75;6258254;28;20425;-67
2021/03/10 10:29:16;;;;;;;52.53;26.27;;;;;;;5.55;92.35;101584.22;6267583;28;20045;-68
2021/03/10 10:32:17;;;;;;;49.97;24.15;;;;;;;5.46;88.83;101594.81;6246347;28;20050;-67
2021/03/10 10:35:20;;;;;;;46.95;24.27;;;;;;;5.70;87.61;101592.63;6246431;28;20052;-67
2021/03/10 10:38:21;;;;;;;44.65;23.58;;;;;;;5.47;88.69;101593.06;6250190;28;20497;-67
2021/03/10 10:41:22;;;;;;;47.30;24.95;;;;;;;5.53;88.58;101587.72;6246112;28;20045;-67
2021/03/10 10:44:23;;;;;;;44.97;24.85;;;;;;;5.67;90.21;101588.31;6246537;28;20046;-67
2021/03/10 10:47:24;;;;;;;49.15;25.50;;;;;;;5.83;87.32;101594.09;6253440;28;20454;-67
2021/03/10 10:50:25;;;;;;;49.17;22.58;;;;;;;5.73;88.34;101592.56;6245993;28;20045;-68
2021/03/10 10:53:26;;;;;;;47.47;24.10;;;;;;;5.85;89.21;101585.34;6246051;28;20057;-68
2021/03/10 10:56:27;;;;;;;43.85;22.90;;;;;;;5.96;87.68;101579.09;6246739;28;20075;-67
2021/03/10 10:59:29;;;;;;;49.45;24.02;;;;;;;6.04;88.91;101580.66;6252396;28;20053;-67
2021/03/10 11:02:29;;;;;;;45.58;22.67;;;;;;;6.00;88.44;101584.22;6251255;28;20045;-67
2021/03/10 11:05:32;;;;;;;42.42;22.02;;;;;;;6.19;87.81;101576.00;6251416;28;20576;-67
2021/03/10 11:08:33;;;;;;;39.03;19.52;;;;;;;6.28;83.45;101561.00;6260133;28;20073;-67
2021/03/10 11:11:34;;;;;;;38.10;20.35;;;;;;;6.25;83.24;101563.66;6275796;28;20087;-67
2021/03/10 11:14:35;;;;;;;34.30;18.73;;;;;;;6.28;82.65;101567.97;6261206;28;20053;-67
2021/03/10 11:17:36;;;;;;;36.83;17.23;;;;;;;6.43;79.21;101559.78;6251272;28;20076;-67
2021/03/10 11:20:38;;;;;;;33.35;17.13;;;;;;;6.53;78.88;101556.03;6272291;28;20413;-66
2021/03/10 11:23:39;;;;;;;37.17;19.17;;;;;;;6.70;77.59;101552.19;6275560;28;20099;-67
2021/03/10 11:26:40;;;;;;;32.85;17.08;;;;;;;6.78;79.08;101556.31;6275652;28;20077;-67
2021/03/10 11:29:41;;;;;;;36.83;19.23;;;;;;;6.76;77.31;101545.03;6263817;28;20476;-67
2021/03/10 11:32:41;;;;;;;31.80;17.90;;;;;;;6.70;76.70;101545.19;6250610;28;20133;-67
2021/03/10 11:35:43;;;;;;;37.50;19.10;;;;;;;7.01;76.65;101544.44;6250706;28;20050;-67
2021/03/10 11:38:44;;;;;;;34.78;18.02;;;;;;;7.08;76.24;101541.59;6236268;28;20417;-67
2021/03/10 11:41:45;;;;;;;31.25;16.95;;;;;;;7.18;73.97;101550.09;6281226;22;20833;-68
2021/03/10 11:44:46;;;;;;;32.28;17.17;;;;;;;7.29;74.81;101541.94;6325004;28;20467;-68
2021/03/10 11:47:47;;;;;;;34.13;19.13;;;;;;;7.22;75.11;101548.22;6319732;28;20451;-68
2021/03/10 11:50:49;;;;;;;32.20;18.15;;;;;;;7.30;75.81;101539.28;6318979;28;20045;-68
2021/03/10 11:53:50;;;;;;;38.80;19.25;;;;;;;7.30;74.89;101544.50;6319631;28;20055;-69
2021/03/10 11:56:51;;;;;;;34.00;18.92;;;;;;;7.35;74.56;101531.31;6308636;28;20055;-68
2021/03/10 11:59:52;;;;;;;35.35;18.40;;;;;;;7.56;71.27;101535.97;6325121;28;20059;-69
2021/03/10 12:02:53;;;;;;;33.00;18.70;;;;;;;7.52;72.02;101531.72;6324285;28;20051;-68
2021/03/10 12:05:55;;;;;;;33.67;18.60;;;;;;;7.49;74.51;101526.56;6312265;28;20048;-68
2021/03/10 12:08:56;;;;;;;34.22;19.58;;;;;;;7.57;72.13;101527.22;6306629;28;20419;-68
2021/03/10 12:11:57;;;;;;;35.15;19.25;;;;;;;7.75;73.58;101517.97;6309770;28;20098;-68
2021/03/10 12:14:58;;;;;;;34.08;18.92;;;;;;;7.72;72.39;101507.63;6310373;28;20052;-69
2021/03/10 12:17:59;;;;;;;33.33;18.98;;;;;;;7.92;72.49;101504.41;6321004;28;20126;-70
2021/03/10 12:21:01;;;;;;;34.67;20.00;;;;;;;7.93;72.29;101492.16;6323631;28;20109;-70
2021/03/10 12:24:02;;;;;;;34.50;19.13;;;;;;;8.03;71.46;101486.59;6323398;28;20115;-70
2021/03/10 12:27:06;;;;;;;37.85;18.45;;;;;;;7.81;70.79;101490.75;6324184;28;20051;-70
2021/03/10 12:30:09;;;;;;;39.72;20.58;;;;;;;7.73;70.47;101482.31;6312703;28;20430;-70
2021/03/10 12:33:10;;;;;;;36.58;19.35;;;;;;;7.93;73.64;101479.94;6316748;28;20040;-71
2021/03/10 12:36:11;;;;;;;36.80;20.33;;;;;;;7.96;74.74;101479.00;6308434;28;20179;-71
2021/03/10 12:39:12;;;;;;;35.90;19.38;;;;;;;8.05;71.68;101473.47;6298556;28;20053;-70
2021/03/10 12:42:14;;;;;;;31.08;18.17;;;;;;;7.94;72.65;101452.84;6297623;28;20047;-71
2021/03/10 12:45:15;;;;;;;35.92;19.58;;;;;;;8.25;69.86;101452.75;6298189;28;20053;-71
2021/03/10 12:48:16;;;;;;;36.38;20.00;;;;;;;8.19;71.29;101441.63;6298215;28;20048;-71
2021/03/10 12:51:18;;;;;;;36.95;20.33;;;;;;;8.23;71.22;101427.53;6297667;28;20056;-71
2021/03/10 12:54:19;;;;;;;38.05;21.02;;;;;;;7.97;72.00;101421.38;6321445;28;20428;-70
2021/03/10 12:57:20;;;;;;;36.72;19.92;;;;;;;8.07;73.23;101422.78;6315064;28;20424;-70
2021/03/10 13:00:23;;;;;;;35.67;20.95;;;;;;;8.11;70.16;101413.91;6322882;28;20048;-70
2021/03/10 13:03:24;;;;;;;36.92;20.05;;;;;;;7.91;72.01;101407.63;6322440;28;20047;-71
2021/03/10 13:06:25;;;;;;;38.38;20.77;;;;;;;7.78;71.63;101412.38;6300083;28;20124;-70
2021/03/10 13:09:26;;;;;;;39.20;20.98;;;;;;;7.77;72.65;101408.91;6298226;28;20194;-69
2021/03/10 13:12:30;;;;;;;41.30;22.77;;;;;;;7.59;74.44;101415.56;6296648;28;20440;-69
2021/03/10 13:15:30;;;;;;;36.95;19.98;;;;;;;7.78;73.71;101409.78;6297646;28;20048;-70
2021/03/10 13:18:31;;;;;;;36.47;20.33;;;;;;;7.63;73.18;101404.09;6297864;28;20075;-68
2021/03/10 13:21:33;;;;;;;33.90;19.83;;;;;;;7.66;72.72;101402.28;6295564;28;20049;-68
2021/03/10 13:24:34;;;;;;;37.05;20.77;;;;;;;7.63;74.82;101393.66;6297443;28;20052;-68
2021/03/10 13:27:35;;;;;;;38.92;21.42;;;;;;;7.60;75.36;101387.66;6297090;28;20048;-69
2021/03/10 13:30:36;;;;;;;38.78;21.90;;;;;;;7.73;74.91;101373.28;6306659;28;20143;-69
2021/03/10 13:33:38;;;;;;;42.60;23.58;;;;;;;7.66;75.98;101381.38;6295828;28;20052;-68
2021/03/10 13:36:40;;;;;;;39.58;23.02;;;;;;;7.67;74.17;101368.22;6300673;28;20452;-69
2021/03/10 13:39:41;;;;;;;42.42;22.60;;;;;;;7.59;74.41;101357.16;6322129;28;20055;-69
2021/03/10 13:42:42;;;;;;;41.72;22.85;;;;;;;7.66;76.57;101370.91;6320807;28;20048;-68
2021/03/10 13:45:43;;;;;;;39.00;21.17;;;;;;;7.68;75.17;101362.13;6321874;28;20083;-68